sensor_id;sensor_type;location;lat;lon;timestamp;temperature;humidity
40323;DHT22;26030;51.164;17.100;2022-12-29T00:04:11;21.50;59.40
40323;DHT22;26030;51.164;17.100;2022-12-29T00:09:18;21.50;59.30
40323;DHT22;26030;51.164;17.100;2022-12-29T00:14:22;21.50;59.40
40323;DHT22;26030;51.164;17.100;2022-12-29T00:19:44;21.40;59.10
40323;DHT22;26030;51.164;17.100;2022-12-29T00:25:10;21.40;59.10
40323;DHT22;26030;51.164;17.100;2022-12-29T00:30:34;21.40;59.00
40323;DHT22;26030;51.164;17.100;2022-12-29T00:36:02;21.30;59.00
40323;DHT22;26030;51.164;17.100;2022-12-29T00:41:09;21.30;59.50
40323;DHT22;26030;51.164;17.100;2022-12-29T00:46:41;21.30;58.80
40323;DHT22;26030;51.164;17.100;2022-12-29T00:51:46;21.30;58.70
40323;DHT22;26030;51.164;17.100;2022-12-29T00:56:51;21.30;58.70
40323;DHT22;26030;51.164;17.100;2022-12-29T01:01:56;21.20;58.70
40323;DHT22;26030;51.164;17.100;2022-12-29T01:07:00;21.20;58.50
40323;DHT22;26030;51.164;17.100;2022-12-29T01:12:07;21.20;58.90
40323;DHT22;26030;51.164;17.100;2022-12-29T01:17:12;21.20;58.80
40323;DHT22;26030;51.164;17.100;2022-12-29T01:22:16;21.30;58.90
40323;DHT22;26030;51.164;17.100;2022-12-29T01:27:20;21.50;58.20
40323;DHT22;26030;51.164;17.100;2022-12-29T01:32:24;21.70;58.30
40323;DHT22;26030;51.164;17.100;2022-12-29T01:37:28;21.80;57.50
40323;DHT22;26030;51.164;17.100;2022-12-29T01:42:32;21.90;57.30
40323;DHT22;26030;51.164;17.100;2022-12-29T01:47:41;22.00;57.20
40323;DHT22;26030;51.164;17.100;2022-12-29T01:52:56;22.00;57.50
40323;DHT22;26030;51.164;17.100;2022-12-29T01:58:09;22.10;57.20
40323;DHT22;26030;51.164;17.100;2022-12-29T02:03:16;22.20;56.80
40323;DHT22;26030;51.164;17.100;2022-12-29T02:08:23;22.20;56.90
40323;DHT22;26030;51.164;17.100;2022-12-29T02:13:30;22.30;56.50
40323;DHT22;26030;51.164;17.100;2022-12-29T02:34:06;22.30;56.20
40323;DHT22;26030;51.164;17.100;2022-12-29T02:50:14;22.50;55.90
40323;DHT22;26030;51.164;17.100;2022-12-29T02:55:22;22.50;55.70
40323;DHT22;26030;51.164;17.100;2022-12-29T03:00:27;22.50;55.60
40323;DHT22;26030;51.164;17.100;2022-12-29T03:11:05;22.50;55.50
40323;DHT22;26030;51.164;17.100;2022-12-29T03:16:43;22.50;55.70
40323;DHT22;26030;51.164;17.100;2022-12-29T03:22:19;22.50;55.80
40323;DHT22;26030;51.164;17.100;2022-12-29T03:27:49;22.40;55.60
40323;DHT22;26030;51.164;17.100;2022-12-29T03:33:01;22.50;55.60
40323;DHT22;26030;51.164;17.100;2022-12-29T03:38:10;22.50;55.50
40323;DHT22;26030;51.164;17.100;2022-12-29T03:43:36;22.50;55.50
40323;DHT22;26030;51.164;17.100;2022-12-29T03:48:41;22.50;55.80
40323;DHT22;26030;51.164;17.100;2022-12-29T03:53:45;22.60;55.30
40323;DHT22;26030;51.164;17.100;2022-12-29T03:58:50;22.60;55.20
40323;DHT22;26030;51.164;17.100;2022-12-29T04:03:59;22.60;55.10
40323;DHT22;26030;51.164;17.100;2022-12-29T04:09:04;22.60;55.30
40323;DHT22;26030;51.164;17.100;2022-12-29T04:14:14;22.60;55.30
40323;DHT22;26030;51.164;17.100;2022-12-29T04:19:20;22.60;55.30
40323;DHT22;26030;51.164;17.100;2022-12-29T04:24:25;22.50;55.60
40323;DHT22;26030;51.164;17.100;2022-12-29T04:29:30;22.50;55.60
40323;DHT22;26030;51.164;17.100;2022-12-29T04:34:40;22.40;55.50
40323;DHT22;26030;51.164;17.100;2022-12-29T04:39:44;22.40;55.70
40323;DHT22;26030;51.164;17.100;2022-12-29T04:44:48;22.30;56.10
40323;DHT22;26030;51.164;17.100;2022-12-29T04:50:10;22.30;55.60
40323;DHT22;26030;51.164;17.100;2022-12-29T04:55:18;22.20;55.90
40323;DHT22;26030;51.164;17.100;2022-12-29T05:00:22;22.10;55.90
40323;DHT22;26030;51.164;17.100;2022-12-29T05:05:27;22.10;56.50
40323;DHT22;26030;51.164;17.100;2022-12-29T05:10:33;22.00;56.10
40323;DHT22;26030;51.164;17.100;2022-12-29T05:15:45;22.00;56.40
40323;DHT22;26030;51.164;17.100;2022-12-29T05:20:51;22.00;56.00
40323;DHT22;26030;51.164;17.100;2022-12-29T05:25:56;21.90;56.00
40323;DHT22;26030;51.164;17.100;2022-12-29T05:31:17;21.90;55.90
40323;DHT22;26030;51.164;17.100;2022-12-29T05:36:23;21.80;55.80
40323;DHT22;26030;51.164;17.100;2022-12-29T05:41:33;21.80;55.80
40323;DHT22;26030;51.164;17.100;2022-12-29T05:46:40;21.80;56.30
40323;DHT22;26030;51.164;17.100;2022-12-29T05:51:48;21.70;55.90
40323;DHT22;26030;51.164;17.100;2022-12-29T05:56:53;21.70;55.90
40323;DHT22;26030;51.164;17.100;2022-12-29T06:01:58;21.70;56.00
40323;DHT22;26030;51.164;17.100;2022-12-29T06:07:03;21.70;56.10
40323;DHT22;26030;51.164;17.100;2022-12-29T06:12:16;21.60;55.90
40323;DHT22;26030;51.164;17.100;2022-12-29T06:17:22;21.60;56.10
40323;DHT22;26030;51.164;17.100;2022-12-29T06:22:26;21.50;55.90
40323;DHT22;26030;51.164;17.100;2022-12-29T06:27:31;21.50;56.10
40323;DHT22;26030;51.164;17.100;2022-12-29T06:32:36;21.50;56.10
40323;DHT22;26030;51.164;17.100;2022-12-29T06:37:41;21.50;56.10
40323;DHT22;26030;51.164;17.100;2022-12-29T06:42:45;21.40;56.10
40323;DHT22;26030;51.164;17.100;2022-12-29T06:48:13;21.40;56.10
40323;DHT22;26030;51.164;17.100;2022-12-29T06:53:17;21.40;56.00
40323;DHT22;26030;51.164;17.100;2022-12-29T06:58:21;21.40;56.20
40323;DHT22;26030;51.164;17.100;2022-12-29T07:03:28;21.50;56.40
40323;DHT22;26030;51.164;17.100;2022-12-29T07:08:32;21.80;56.00
40323;DHT22;26030;51.164;17.100;2022-12-29T07:13:36;21.90;55.50
40323;DHT22;26030;51.164;17.100;2022-12-29T07:18:40;22.00;55.10
40323;DHT22;26030;51.164;17.100;2022-12-29T07:23:44;22.00;53.90
40323;DHT22;26030;51.164;17.100;2022-12-29T07:28:48;22.00;54.40
40323;DHT22;26030;51.164;17.100;2022-12-29T07:33:53;22.20;54.30
40323;DHT22;26030;51.164;17.100;2022-12-29T07:38:57;22.20;54.20
40323;DHT22;26030;51.164;17.100;2022-12-29T07:44:02;22.30;54.00
40323;DHT22;26030;51.164;17.100;2022-12-29T07:49:26;22.30;53.80
40323;DHT22;26030;51.164;17.100;2022-12-29T07:54:30;22.40;53.80
40323;DHT22;26030;51.164;17.100;2022-12-29T07:59:35;22.40;53.90
40323;DHT22;26030;51.164;17.100;2022-12-29T08:04:40;22.30;53.90
40323;DHT22;26030;51.164;17.100;2022-12-29T08:09:45;22.30;54.20
40323;DHT22;26030;51.164;17.100;2022-12-29T08:14:49;22.40;54.10
40323;DHT22;26030;51.164;17.100;2022-12-29T08:19:53;22.40;53.90
40323;DHT22;26030;51.164;17.100;2022-12-29T08:24:58;22.40;53.90
40323;DHT22;26030;51.164;17.100;2022-12-29T08:30:03;22.40;53.90
40323;DHT22;26030;51.164;17.100;2022-12-29T08:35:07;22.40;53.90
40323;DHT22;26030;51.164;17.100;2022-12-29T08:40:12;22.30;54.10
40323;DHT22;26030;51.164;17.100;2022-12-29T08:45:17;22.30;54.30
40323;DHT22;26030;51.164;17.100;2022-12-29T08:50:21;22.30;54.20
40323;DHT22;26030;51.164;17.100;2022-12-29T08:55:25;22.30;54.40
40323;DHT22;26030;51.164;17.100;2022-12-29T09:00:30;22.30;54.30
40323;DHT22;26030;51.164;17.100;2022-12-29T09:05:35;22.30;54.40
40323;DHT22;26030;51.164;17.100;2022-12-29T09:10:39;22.40;54.40
40323;DHT22;26030;51.164;17.100;2022-12-29T09:15:43;22.40;54.30
40323;DHT22;26030;51.164;17.100;2022-12-29T09:20:47;22.40;54.20
40323;DHT22;26030;51.164;17.100;2022-12-29T09:25:52;22.50;54.10
40323;DHT22;26030;51.164;17.100;2022-12-29T09:30:57;22.50;53.80
40323;DHT22;26030;51.164;17.100;2022-12-29T09:36:02;22.40;53.80
40323;DHT22;26030;51.164;17.100;2022-12-29T09:41:11;22.50;53.50
40323;DHT22;26030;51.164;17.100;2022-12-29T09:46:38;22.50;53.30
40323;DHT22;26030;51.164;17.100;2022-12-29T09:51:52;22.50;53.50
40323;DHT22;26030;51.164;17.100;2022-12-29T09:56:58;22.50;53.30
40323;DHT22;26030;51.164;17.100;2022-12-29T10:07:33;22.50;53.10
40323;DHT22;26030;51.164;17.100;2022-12-29T10:18:10;22.60;52.60
40323;DHT22;26030;51.164;17.100;2022-12-29T10:23:43;22.60;52.50
40323;DHT22;26030;51.164;17.100;2022-12-29T10:28:59;22.70;52.10
40323;DHT22;26030;51.164;17.100;2022-12-29T10:34:26;22.80;52.20
40323;DHT22;26030;51.164;17.100;2022-12-29T10:39:48;22.80;52.00
40323;DHT22;26030;51.164;17.100;2022-12-29T10:44:54;22.80;51.90
40323;DHT22;26030;51.164;17.100;2022-12-29T10:50:01;22.90;52.10
40323;DHT22;26030;51.164;17.100;2022-12-29T10:55:08;22.80;52.30
40323;DHT22;26030;51.164;17.100;2022-12-29T11:00:21;22.80;52.60
40323;DHT22;26030;51.164;17.100;2022-12-29T11:05:32;22.70;52.20
40323;DHT22;26030;51.164;17.100;2022-12-29T11:11:01;22.80;52.50
40323;DHT22;26030;51.164;17.100;2022-12-29T11:16:11;22.80;52.20
40323;DHT22;26030;51.164;17.100;2022-12-29T11:21:37;22.80;52.50
40323;DHT22;26030;51.164;17.100;2022-12-29T11:26:47;22.80;52.20
40323;DHT22;26030;51.164;17.100;2022-12-29T11:32:05;22.70;52.20
40323;DHT22;26030;51.164;17.100;2022-12-29T11:37:29;22.70;52.60
40323;DHT22;26030;51.164;17.100;2022-12-29T11:42:39;22.70;52.20
40323;DHT22;26030;51.164;17.100;2022-12-29T11:47:53;22.60;51.80
40323;DHT22;26030;51.164;17.100;2022-12-29T11:53:36;22.50;51.40
40323;DHT22;26030;51.164;17.100;2022-12-29T11:58:34;22.40;51.30
40323;DHT22;26030;51.164;17.100;2022-12-29T12:03:42;22.40;51.30
40323;DHT22;26030;51.164;17.100;2022-12-29T12:08:55;22.40;51.80
40323;DHT22;26030;51.164;17.100;2022-12-29T12:14:02;22.30;51.00
40323;DHT22;26030;51.164;17.100;2022-12-29T12:19:42;22.30;51.10
40323;DHT22;26030;51.164;17.100;2022-12-29T12:24:53;22.20;51.10
40323;DHT22;26030;51.164;17.100;2022-12-29T12:30:15;22.20;51.10
40323;DHT22;26030;51.164;17.100;2022-12-29T12:46:12;22.10;51.00
40323;DHT22;26030;51.164;17.100;2022-12-29T12:51:33;22.00;50.90
40323;DHT22;26030;51.164;17.100;2022-12-29T12:57:11;22.00;51.30
40323;DHT22;26030;51.164;17.100;2022-12-29T13:02:33;22.00;51.10
40323;DHT22;26030;51.164;17.100;2022-12-29T13:23:59;21.90;52.70
40323;DHT22;26030;51.164;17.100;2022-12-29T13:34:46;21.90;52.60
40323;DHT22;26030;51.164;17.100;2022-12-29T13:40:11;21.80;52.70
40323;DHT22;26030;51.164;17.100;2022-12-29T13:45:24;21.80;52.70
40323;DHT22;26030;51.164;17.100;2022-12-29T13:50:31;21.80;52.70
40323;DHT22;26030;51.164;17.100;2022-12-29T14:06:41;21.70;53.10
40323;DHT22;26030;51.164;17.100;2022-12-29T14:11:48;21.70;52.60
40323;DHT22;26030;51.164;17.100;2022-12-29T14:16:52;21.60;52.50
40323;DHT22;26030;51.164;17.100;2022-12-29T14:22:05;21.60;52.60
40323;DHT22;26030;51.164;17.100;2022-12-29T14:37:31;21.50;52.90
40323;DHT22;26030;51.164;17.100;2022-12-29T14:42:37;21.50;52.30
40323;DHT22;26030;51.164;17.100;2022-12-29T14:47:45;21.40;52.20
40323;DHT22;26030;51.164;17.100;2022-12-29T14:52:57;21.50;52.60
40323;DHT22;26030;51.164;17.100;2022-12-29T14:58:12;21.40;52.60
40323;DHT22;26030;51.164;17.100;2022-12-29T15:03:22;21.40;52.80
40323;DHT22;26030;51.164;17.100;2022-12-29T15:08:33;21.40;53.00
40323;DHT22;26030;51.164;17.100;2022-12-29T15:13:43;21.40;53.80
40323;DHT22;26030;51.164;17.100;2022-12-29T15:18:48;21.40;53.30
40323;DHT22;26030;51.164;17.100;2022-12-29T15:23:52;21.40;53.20
40323;DHT22;26030;51.164;17.100;2022-12-29T15:28:57;21.30;53.20
40323;DHT22;26030;51.164;17.100;2022-12-29T15:34:07;21.30;53.00
40323;DHT22;26030;51.164;17.100;2022-12-29T15:39:18;21.30;53.00
40323;DHT22;26030;51.164;17.100;2022-12-29T15:49:41;21.80;53.10
40323;DHT22;26030;51.164;17.100;2022-12-29T15:54:47;22.00;51.50
40323;DHT22;26030;51.164;17.100;2022-12-29T15:59:54;22.00;51.20
40323;DHT22;26030;51.164;17.100;2022-12-29T16:04:58;22.00;51.00
40323;DHT22;26030;51.164;17.100;2022-12-29T16:10:54;22.10;50.60
40323;DHT22;26030;51.164;17.100;2022-12-29T16:15:51;22.20;50.50
40323;DHT22;26030;51.164;17.100;2022-12-29T16:21:00;22.40;50.80
40323;DHT22;26030;51.164;17.100;2022-12-29T16:26:05;22.60;49.90
40323;DHT22;26030;51.164;17.100;2022-12-29T16:31:24;22.70;49.60
40323;DHT22;26030;51.164;17.100;2022-12-29T16:36:40;22.80;49.30
40323;DHT22;26030;51.164;17.100;2022-12-29T16:53:21;23.00;49.20
40323;DHT22;26030;51.164;17.100;2022-12-29T16:58:30;23.10;48.50
40323;DHT22;26030;51.164;17.100;2022-12-29T17:03:38;23.10;48.80
40323;DHT22;26030;51.164;17.100;2022-12-29T17:08:44;23.20;48.40
40323;DHT22;26030;51.164;17.100;2022-12-29T17:13:49;23.20;48.70
40323;DHT22;26030;51.164;17.100;2022-12-29T17:44:32;22.80;49.30
40323;DHT22;26030;51.164;17.100;2022-12-29T17:50:10;22.80;50.10
40323;DHT22;26030;51.164;17.100;2022-12-29T17:55:59;22.50;49.40
40323;DHT22;26030;51.164;17.100;2022-12-29T18:01:36;22.50;50.20
40323;DHT22;26030;51.164;17.100;2022-12-29T18:07:14;22.40;49.90
40323;DHT22;26030;51.164;17.100;2022-12-29T18:12:58;22.30;49.80
40323;DHT22;26030;51.164;17.100;2022-12-29T18:18:37;22.30;49.80
40323;DHT22;26030;51.164;17.100;2022-12-29T18:24:14;22.30;49.60
40323;DHT22;26030;51.164;17.100;2022-12-29T18:29:51;22.30;49.40
40323;DHT22;26030;51.164;17.100;2022-12-29T18:35:47;22.30;50.70
40323;DHT22;26030;51.164;17.100;2022-12-29T18:41:28;22.30;51.10
40323;DHT22;26030;51.164;17.100;2022-12-29T18:47:05;22.10;51.00
40323;DHT22;26030;51.164;17.100;2022-12-29T18:52:43;22.00;51.10
40323;DHT22;26030;51.164;17.100;2022-12-29T18:58:26;22.00;51.60
40323;DHT22;26030;51.164;17.100;2022-12-29T19:04:03;22.00;51.50
40323;DHT22;26030;51.164;17.100;2022-12-29T19:09:40;22.00;51.50
40323;DHT22;26030;51.164;17.100;2022-12-29T19:15:31;21.90;51.30
40323;DHT22;26030;51.164;17.100;2022-12-29T19:21:12;21.90;51.70
40323;DHT22;26030;51.164;17.100;2022-12-29T19:26:49;21.90;51.40
40323;DHT22;26030;51.164;17.100;2022-12-29T19:32:27;21.90;53.70
40323;DHT22;26030;51.164;17.100;2022-12-29T19:38:04;21.80;53.30
40323;DHT22;26030;51.164;17.100;2022-12-29T19:43:41;21.80;53.30
40323;DHT22;26030;51.164;17.100;2022-12-29T19:49:19;21.80;55.70
40323;DHT22;26030;51.164;17.100;2022-12-29T19:54:56;21.70;58.00
40323;DHT22;26030;51.164;17.100;2022-12-29T20:00:40;21.80;61.00
40323;DHT22;26030;51.164;17.100;2022-12-29T20:06:20;21.80;60.00
40323;DHT22;26030;51.164;17.100;2022-12-29T20:11:57;21.80;59.50
40323;DHT22;26030;51.164;17.100;2022-12-29T20:17:34;21.80;59.40
40323;DHT22;26030;51.164;17.100;2022-12-29T20:23:33;21.80;58.70
40323;DHT22;26030;51.164;17.100;2022-12-29T20:29:13;21.70;58.60
40323;DHT22;26030;51.164;17.100;2022-12-29T20:34:50;21.60;58.50
40323;DHT22;26030;51.164;17.100;2022-12-29T20:40:28;21.50;58.30
40323;DHT22;26030;51.164;17.100;2022-12-29T20:46:09;21.50;58.30
40323;DHT22;26030;51.164;17.100;2022-12-29T20:51:57;21.60;61.80
40323;DHT22;26030;51.164;17.100;2022-12-29T20:57:35;21.60;60.20
40323;DHT22;26030;51.164;17.100;2022-12-29T21:16:02;21.70;62.20
40323;DHT22;26030;51.164;17.100;2022-12-29T21:21:41;21.70;62.20
40323;DHT22;26030;51.164;17.100;2022-12-29T21:27:21;21.70;63.50
40323;DHT22;26030;51.164;17.100;2022-12-29T21:32:58;21.70;63.60
40323;DHT22;26030;51.164;17.100;2022-12-29T21:38:36;21.70;63.70
40323;DHT22;26030;51.164;17.100;2022-12-29T21:44:13;21.70;63.40
40323;DHT22;26030;51.164;17.100;2022-12-29T21:50:09;21.60;63.20
40323;DHT22;26030;51.164;17.100;2022-12-29T21:55:46;21.60;62.90
40323;DHT22;26030;51.164;17.100;2022-12-29T22:01:24;21.50;63.30
40323;DHT22;26030;51.164;17.100;2022-12-29T22:07:22;21.40;62.90
40323;DHT22;26030;51.164;17.100;2022-12-29T22:13:17;21.40;62.60
40323;DHT22;26030;51.164;17.100;2022-12-29T22:18:54;21.40;62.70
40323;DHT22;26030;51.164;17.100;2022-12-29T22:24:31;21.30;62.50
40323;DHT22;26030;51.164;17.100;2022-12-29T22:29:47;21.30;62.50
40323;DHT22;26030;51.164;17.100;2022-12-29T22:35:25;21.20;61.90
40323;DHT22;26030;51.164;17.100;2022-12-29T22:41:02;21.20;61.60
40323;DHT22;26030;51.164;17.100;2022-12-29T22:46:39;21.20;62.00
40323;DHT22;26030;51.164;17.100;2022-12-29T22:52:16;21.10;61.60
40323;DHT22;26030;51.164;17.100;2022-12-29T22:57:53;21.10;61.90
40323;DHT22;26030;51.164;17.100;2022-12-29T23:03:30;21.10;61.60
40323;DHT22;26030;51.164;17.100;2022-12-29T23:09:07;21.10;61.40
40323;DHT22;26030;51.164;17.100;2022-12-29T23:14:51;21.10;61.90
40323;DHT22;26030;51.164;17.100;2022-12-29T23:20:28;21.40;60.70
40323;DHT22;26030;51.164;17.100;2022-12-29T23:26:06;21.90;59.40
40323;DHT22;26030;51.164;17.100;2022-12-29T23:31:44;22.20;58.40
40323;DHT22;26030;51.164;17.100;2022-12-29T23:37:22;22.50;58.20
40323;DHT22;26030;51.164;17.100;2022-12-29T23:42:59;22.60;58.00
40323;DHT22;26030;51.164;17.100;2022-12-29T23:48:36;22.70;57.80
40323;DHT22;26030;51.164;17.100;2022-12-29T23:54:13;22.80;57.30
40323;DHT22;26030;51.164;17.100;2022-12-29T23:59:50;23.00;57.30
